createdAt,value
2018-11-06T00:02:01.346Z,30.43
2018-11-06T00:04:34.614Z,28.30
2018-11-06T00:07:02.354Z,30.30
2018-11-06T00:09:30.099Z,28.37
2018-11-06T00:11:58.133Z,29.00
2018-11-06T00:14:25.862Z,27.97
2018-11-06T00:16:53.595Z,29.13
2018-11-06T00:19:21.316Z,26.40
2018-11-06T00:21:49.035Z,27.10
2018-11-06T00:24:16.762Z,25.50
2018-11-06T00:26:44.486Z,26.40
2018-11-06T00:29:12.214Z,25.43
2018-11-06T00:31:39.936Z,26.70
2018-11-06T00:34:07.704Z,26.13
2018-11-06T00:36:35.414Z,25.83
2018-11-06T00:39:03.410Z,26.73
2018-11-06T00:41:31.126Z,26.07
2018-11-06T00:43:58.850Z,25.97
2018-11-06T00:46:26.573Z,26.17
2018-11-06T00:48:54.298Z,27.03
2018-11-06T00:51:22.016Z,25.43
2018-11-06T00:53:50.346Z,24.93
2018-11-06T00:56:18.099Z,26.67
2018-11-06T00:58:45.831Z,25.17
2018-11-06T01:01:13.559Z,25.77
2018-11-06T01:03:46.742Z,24.73
2018-11-06T01:06:14.474Z,25.07
2018-11-06T01:08:42.255Z,24.93
2018-11-06T01:11:09.982Z,26.93
2018-11-06T01:13:37.717Z,27.40
2018-11-06T01:16:05.682Z,28.27
2018-11-06T01:18:33.422Z,26.63
2018-11-06T01:21:01.179Z,27.37
2018-11-06T01:23:28.983Z,26.30
2018-11-06T01:25:56.719Z,25.73
2018-11-06T01:28:24.454Z,26.53
2018-11-06T01:30:52.188Z,27.33
2018-11-06T01:33:19.910Z,26.93
2018-11-06T01:35:47.649Z,27.57
2018-11-06T01:38:15.361Z,27.60
2018-11-06T01:40:43.114Z,27.57
2018-11-06T01:43:10.842Z,28.17
2018-11-06T01:45:38.586Z,26.40
2018-11-06T01:48:06.346Z,26.90
2018-11-06T01:50:34.077Z,26.57
2018-11-06T01:53:01.787Z,25.07
2018-11-06T01:55:29.513Z,22.43
2018-11-06T01:57:57.266Z,25.43
2018-11-06T02:00:25.017Z,24.47
2018-11-06T02:02:52.759Z,24.83
2018-11-06T02:05:20.485Z,24.70
2018-11-06T02:07:49.078Z,25.87
2018-11-06T02:10:17.242Z,24.50
2018-11-06T02:12:45.728Z,25.90
2018-11-06T02:15:13.554Z,24.83
2018-11-06T02:17:42.281Z,24.97
2018-11-06T02:20:10.874Z,24.30
2018-11-06T02:22:39.210Z,26.67
2018-11-06T02:25:07.629Z,26.00
2018-11-06T02:27:35.582Z,25.53
2018-11-06T02:30:03.455Z,26.20
2018-11-06T02:32:31.359Z,26.13
2018-11-06T02:34:59.023Z,27.17
2018-11-06T02:37:26.742Z,23.33
2018-11-06T02:39:54.458Z,25.57
2018-11-06T02:42:22.211Z,26.77
2018-11-06T02:44:49.922Z,26.67
2018-11-06T02:47:17.679Z,27.63
2018-11-06T02:49:45.399Z,28.93
2018-11-06T02:52:13.138Z,26.87
2018-11-06T02:54:40.902Z,28.20
2018-11-06T02:57:08.679Z,26.87
2018-11-06T02:59:36.402Z,26.57
2018-11-06T03:02:04.463Z,28.07
2018-11-06T03:04:32.194Z,28.17
2018-11-06T03:06:59.922Z,28.07
2018-11-06T03:09:27.643Z,28.20
2018-11-06T03:11:55.362Z,28.03
2018-11-06T03:14:23.078Z,29.03
2018-11-06T03:16:50.851Z,28.03
2018-11-06T03:19:18.538Z,28.07
2018-11-06T03:21:46.254Z,27.67
2018-11-06T03:24:13.989Z,27.77
2018-11-06T03:26:41.720Z,29.00
2018-11-06T03:29:09.486Z,28.17
2018-11-06T03:31:37.251Z,28.87
2018-11-06T03:34:05.466Z,28.57
2018-11-06T03:36:33.206Z,28.93
2018-11-06T03:39:00.933Z,26.93
2018-11-06T03:41:28.670Z,28.67
2018-11-06T03:43:56.391Z,28.70
2018-11-06T03:46:24.118Z,28.43
2018-11-06T03:48:51.826Z,28.80
2018-11-06T03:51:19.539Z,29.23
2018-11-06T03:53:47.282Z,28.57
2018-11-06T03:56:14.994Z,31.10
2018-11-06T03:58:42.708Z,30.87
2018-11-06T04:01:10.433Z,31.63
2018-11-06T04:03:38.155Z,31.67
2018-11-06T04:06:05.980Z,30.53
2018-11-06T04:08:33.719Z,30.53
2018-11-06T04:11:01.454Z,29.87
2018-11-06T04:13:29.165Z,30.27
2018-11-06T04:15:56.894Z,31.70
2018-11-06T04:18:24.614Z,30.67
2018-11-06T04:20:52.330Z,28.90
2018-11-06T04:23:20.069Z,30.07
2018-11-06T04:25:48.113Z,30.47
2018-11-06T04:28:15.829Z,29.17
2018-11-06T04:30:43.555Z,32.90
2018-11-06T04:33:11.286Z,29.93
2018-11-06T04:35:39.008Z,30.37
2018-11-06T04:38:06.819Z,29.93
2018-11-06T04:40:34.570Z,30.93
2018-11-06T04:43:02.306Z,31.20
2018-11-06T04:45:30.035Z,29.63
2018-11-06T04:47:57.779Z,31.23
2018-11-06T04:50:25.691Z,28.47
2018-11-06T04:52:53.438Z,29.10
2018-11-06T04:55:21.147Z,29.43
2018-11-06T04:57:48.902Z,28.77
2018-11-06T05:00:16.620Z,30.80
2018-11-06T05:02:44.367Z,29.20
2018-11-06T05:05:12.726Z,29.53
2018-11-06T05:07:40.718Z,28.90
2018-11-06T05:10:10.823Z,27.83
2018-11-06T05:12:38.802Z,30.07
2018-11-06T05:15:08.193Z,29.13
2018-11-06T05:17:35.996Z,31.00
2018-11-06T05:20:04.750Z,31.93
2018-11-06T05:22:32.476Z,30.83
2018-11-06T05:25:00.214Z,31.20
2018-11-06T05:27:28.124Z,32.10
2018-11-06T05:29:55.808Z,32.10
2018-11-06T05:32:23.587Z,28.57
2018-11-06T05:34:51.403Z,30.07
2018-11-06T05:37:19.074Z,31.90
2018-11-06T05:39:57.903Z,28.93
2018-11-06T05:42:25.659Z,29.57
2018-11-06T05:44:53.390Z,28.30
2018-11-06T05:47:21.107Z,27.00
2018-11-06T05:49:49.236Z,28.13
2018-11-06T05:52:16.996Z,28.00
2018-11-06T05:54:44.698Z,28.23
2018-11-06T05:57:12.579Z,29.57
2018-11-06T05:59:40.299Z,27.83
2018-11-06T06:02:08.030Z,27.07
2018-11-06T06:04:35.775Z,26.63
2018-11-06T06:07:03.584Z,27.40
2018-11-06T06:09:31.329Z,29.50
2018-11-06T06:11:59.042Z,29.80
2018-11-06T06:14:26.751Z,29.40
2018-11-06T06:16:54.566Z,26.83
2018-11-06T06:19:22.287Z,30.80
2018-11-06T06:21:50.303Z,33.27
2018-11-06T06:24:18.074Z,45.10
2018-11-06T06:26:45.899Z,34.43
2018-11-06T06:29:13.627Z,33.60
2018-11-06T06:31:41.366Z,35.73
2018-11-06T06:34:09.826Z,34.27
2018-11-06T06:36:37.830Z,32.60
2018-11-06T06:39:06.844Z,30.27
2018-11-06T06:41:34.611Z,32.37
2018-11-06T06:44:02.359Z,32.63
2018-11-06T06:46:30.482Z,32.77
2018-11-06T06:48:58.165Z,32.23
2018-11-06T06:51:25.902Z,33.50
2018-11-06T06:53:53.927Z,32.47
2018-11-06T06:56:21.687Z,31.53
2018-11-06T06:58:49.481Z,33.00
2018-11-06T07:01:17.230Z,31.03
2018-11-06T07:03:44.957Z,32.30
2018-11-06T07:06:12.683Z,32.40
2018-11-06T07:08:40.416Z,32.37
2018-11-06T07:11:08.366Z,32.40
2018-11-06T07:13:36.091Z,31.70
2018-11-06T07:16:03.838Z,32.67
2018-11-06T07:18:31.630Z,34.77
2018-11-06T07:20:59.331Z,34.43
2018-11-06T07:23:27.063Z,34.10
2018-11-06T07:25:55.651Z,35.00
2018-11-06T07:28:23.422Z,34.03
2018-11-06T07:30:51.182Z,34.47
2018-11-06T07:33:18.907Z,35.70
2018-11-06T07:35:47.200Z,34.60
2018-11-06T07:38:14.789Z,34.07
2018-11-06T07:40:42.540Z,33.30
2018-11-06T07:43:10.292Z,33.73
2018-11-06T07:45:38.016Z,32.57
2018-11-06T07:48:05.734Z,33.73
2018-11-06T07:50:33.573Z,33.00
2018-11-06T07:53:01.282Z,36.07
2018-11-06T07:55:29.497Z,34.20
2018-11-06T07:57:57.257Z,34.17
2018-11-06T08:00:25.972Z,32.90
2018-11-06T08:02:54.192Z,33.40
2018-11-06T08:05:22.082Z,32.20
2018-11-06T08:07:50.683Z,34.57
2018-11-06T08:10:18.458Z,33.70
2018-11-06T08:12:47.631Z,33.67
2018-11-06T08:15:15.498Z,34.50
2018-11-06T08:17:43.990Z,35.17
2018-11-06T08:20:11.813Z,36.07
2018-11-06T08:22:40.829Z,36.83
2018-11-06T08:25:10.007Z,35.77
2018-11-06T08:27:38.515Z,35.47
2018-11-06T08:30:06.998Z,36.40
2018-11-06T08:32:35.145Z,35.77
2018-11-06T08:35:03.302Z,37.97
2018-11-06T08:37:31.035Z,37.37
2018-11-06T08:39:58.818Z,39.43
2018-11-06T08:42:26.627Z,44.47
2018-11-06T08:44:55.501Z,53.77
2018-11-06T08:47:23.299Z,43.10
2018-11-06T08:49:51.034Z,36.63
2018-11-06T08:52:18.777Z,43.03
2018-11-06T08:54:46.621Z,34.13
2018-11-06T08:57:14.250Z,39.40
2018-11-06T08:59:42.171Z,34.17
2018-11-06T09:02:10.047Z,37.47
2018-11-06T09:04:37.777Z,38.57
2018-11-06T09:07:05.675Z,35.97
2018-11-06T09:09:33.399Z,34.03
2018-11-06T09:12:01.161Z,34.80
2018-11-06T09:14:28.979Z,36.17
2018-11-06T09:16:56.734Z,38.07
2018-11-06T09:19:24.518Z,42.07
2018-11-06T09:21:52.241Z,32.70
2018-11-06T09:24:19.987Z,36.43
2018-11-06T09:26:47.721Z,37.33
2018-11-06T09:29:15.469Z,43.27
2018-11-06T09:31:43.222Z,48.70
2018-11-06T09:34:10.975Z,37.93
2018-11-06T09:36:38.765Z,37.20
2018-11-06T09:39:09.067Z,34.30
2018-11-06T09:41:37.290Z,29.90
2018-11-06T09:44:05.355Z,30.73
2018-11-06T09:46:33.256Z,33.17
2018-11-06T09:49:01.035Z,35.07
2018-11-06T09:51:28.771Z,35.20
2018-11-06T09:53:56.570Z,33.73
2018-11-06T09:56:24.306Z,41.10
2018-11-06T09:58:52.096Z,33.80
2018-11-06T10:01:19.841Z,27.70
2018-11-06T10:03:47.575Z,40.43
2018-11-06T10:06:15.399Z,40.40
2018-11-06T10:08:43.371Z,52.27
2018-11-06T10:11:11.191Z,49.10
2018-11-06T10:13:38.926Z,55.60
2018-11-06T10:16:06.679Z,51.77
2018-11-06T10:18:34.451Z,44.67
2018-11-06T10:21:02.525Z,42.60
2018-11-06T10:23:30.355Z,41.50
2018-11-06T10:25:58.122Z,41.53
2018-11-06T10:28:25.879Z,43.03
2018-11-06T10:30:53.674Z,45.77
2018-11-06T10:33:21.440Z,45.80
2018-11-06T10:35:49.231Z,35.33
2018-11-06T10:38:17.056Z,32.33
2018-11-06T10:40:44.730Z,33.50
2018-11-06T10:43:13.310Z,32.77
2018-11-06T10:45:41.039Z,33.50
2018-11-06T10:48:11.659Z,33.27
2018-11-06T10:50:39.388Z,36.47
2018-11-06T10:53:07.128Z,35.90
2018-11-06T10:55:35.123Z,35.13
2018-11-06T10:58:02.976Z,35.77
2018-11-06T11:00:36.401Z,33.10
2018-11-06T11:03:07.147Z,34.97
2018-11-06T11:05:34.900Z,35.47
2018-11-06T11:08:02.679Z,34.03
2018-11-06T11:10:30.445Z,34.43
2018-11-06T11:12:58.182Z,32.77
2018-11-06T11:15:25.957Z,36.83
2018-11-06T11:17:53.667Z,30.50
2018-11-06T11:20:21.512Z,26.27
2018-11-06T11:22:49.167Z,24.77
2018-11-06T11:25:16.953Z,24.23
2018-11-06T11:27:45.510Z,26.67
2018-11-06T11:30:14.482Z,30.83
2018-11-06T11:32:46.138Z,26.50
2018-11-06T11:35:14.415Z,26.07
2018-11-06T11:37:42.366Z,28.13
2018-11-06T11:40:11.409Z,28.37
2018-11-06T11:42:39.151Z,30.03
2018-11-06T11:45:08.299Z,24.80
2018-11-06T11:47:36.314Z,26.03
2018-11-06T11:50:04.410Z,29.73
2018-11-06T11:52:32.159Z,32.10
2018-11-06T11:54:59.886Z,31.10
2018-11-06T11:57:27.857Z,29.87
2018-11-06T11:59:55.611Z,27.07
2018-11-06T12:02:23.408Z,25.97
2018-11-06T12:04:51.106Z,25.47
2018-11-06T12:07:18.898Z,25.53
2018-11-06T12:09:46.782Z,28.17
2018-11-06T12:12:14.545Z,29.73
2018-11-06T12:14:42.299Z,26.80
2018-11-06T12:17:10.066Z,24.83
2018-11-06T12:19:38.035Z,23.30
2018-11-06T12:22:06.509Z,24.57
2018-11-06T12:24:34.338Z,24.47
2018-11-06T12:27:02.119Z,23.43
2018-11-06T12:29:29.882Z,22.77
2018-11-06T12:31:57.721Z,22.93
2018-11-06T12:34:25.501Z,23.20
2018-11-06T12:36:53.284Z,23.37
2018-11-06T12:39:21.011Z,23.17
2018-11-06T12:41:48.779Z,22.03
2018-11-06T12:44:16.519Z,22.00
2018-11-06T12:46:44.246Z,22.50
2018-11-06T12:49:12.047Z,22.90
2018-11-06T12:51:39.790Z,22.33
2018-11-06T12:54:14.103Z,20.03
2018-11-06T12:56:42.684Z,20.27
2018-11-06T12:59:10.447Z,20.50
2018-11-06T13:01:38.250Z,20.97
2018-11-06T13:04:06.023Z,18.40
2018-11-06T13:06:33.766Z,20.23
2018-11-06T13:09:01.465Z,20.70
2018-11-06T13:11:29.210Z,19.93
2018-11-06T13:13:56.952Z,19.73
2018-11-06T13:16:24.722Z,21.00
2018-11-06T13:18:52.539Z,19.33
2018-11-06T13:21:20.309Z,17.63
2018-11-06T13:23:48.096Z,17.40
2018-11-06T13:26:15.952Z,16.47
2018-11-06T13:28:43.622Z,17.83
2018-11-06T13:31:11.359Z,18.47
2018-11-06T13:33:39.171Z,16.90
2018-11-06T13:36:07.238Z,16.97
2018-11-06T13:38:34.982Z,17.33
2018-11-06T13:41:02.707Z,16.87
2018-11-06T13:43:30.563Z,16.73
2018-11-06T13:45:58.239Z,17.73
2018-11-06T13:48:25.961Z,19.63
2018-11-06T13:50:53.687Z,18.20
2018-11-06T13:53:21.417Z,18.03
2018-11-06T13:55:49.195Z,19.17
2018-11-06T13:58:16.937Z,17.73
2018-11-06T14:00:44.685Z,17.57
2018-11-06T14:03:12.483Z,17.33
2018-11-06T14:05:40.451Z,17.70
2018-11-06T14:08:08.184Z,19.43
2018-11-06T14:10:35.921Z,19.20
2018-11-06T14:13:03.691Z,18.07
2018-11-06T14:15:31.477Z,17.17
2018-11-06T14:18:00.234Z,18.63
2018-11-06T14:20:28.102Z,18.10
2018-11-06T14:22:55.859Z,18.30
2018-11-06T14:25:23.586Z,18.03
2018-11-06T14:27:51.366Z,17.60
2018-11-06T14:30:19.618Z,16.87
2018-11-06T14:32:47.772Z,13.93
2018-11-06T14:35:16.583Z,15.77
2018-11-06T14:37:44.958Z,16.00
2018-11-06T14:40:13.429Z,15.63
2018-11-06T14:42:41.575Z,15.93
2018-11-06T14:45:10.723Z,17.27
2018-11-06T14:47:38.671Z,17.07
2018-11-06T14:50:07.212Z,18.10
2018-11-06T14:52:35.235Z,18.10
2018-11-06T14:55:03.060Z,18.37
2018-11-06T14:57:30.867Z,15.97
2018-11-06T14:59:58.657Z,17.37
2018-11-06T15:02:26.583Z,17.83
2018-11-06T15:04:54.314Z,18.57
2018-11-06T15:07:22.201Z,19.50
2018-11-06T15:09:49.927Z,18.33
2018-11-06T15:12:17.678Z,22.40
2018-11-06T15:14:45.798Z,22.60
2018-11-06T15:17:13.690Z,23.20
2018-11-06T15:19:41.576Z,28.90
2018-11-06T15:22:09.307Z,24.83
2018-11-06T15:24:37.034Z,26.17
2018-11-06T15:27:04.829Z,30.30
2018-11-06T15:29:32.586Z,29.50
2018-11-06T15:32:00.432Z,33.77
2018-11-06T15:34:28.178Z,28.87
2018-11-06T15:36:55.935Z,177.93
2018-11-06T15:39:23.713Z,34.77
2018-11-06T15:41:51.539Z,30.37
2018-11-06T15:44:19.264Z,31.63
2018-11-06T15:46:46.995Z,36.50
2018-11-06T15:49:14.789Z,40.63
2018-11-06T15:51:42.512Z,40.87
2018-11-06T15:54:10.280Z,46.60
2018-11-06T15:56:38.014Z,50.20
2018-11-06T15:59:05.816Z,52.60
2018-11-06T16:01:33.566Z,54.97
2018-11-06T16:04:01.463Z,53.80
2018-11-06T16:06:29.217Z,53.77
2018-11-06T16:08:56.942Z,53.13
2018-11-06T16:11:24.699Z,51.40
2018-11-06T16:13:52.418Z,50.33
2018-11-06T16:16:20.174Z,52.00
2018-11-06T16:18:47.917Z,55.47
2018-11-06T16:21:15.698Z,55.03
2018-11-06T16:23:43.431Z,55.13
2018-11-06T16:26:11.161Z,55.70
2018-11-06T16:28:38.903Z,57.77
2018-11-06T16:31:06.726Z,57.90
2018-11-06T16:33:34.470Z,59.00
2018-11-06T16:36:02.227Z,63.90
2018-11-06T16:38:29.974Z,65.87
2018-11-06T16:40:57.732Z,69.90
2018-11-06T16:43:25.467Z,71.23
2018-11-06T16:45:53.228Z,68.33
2018-11-06T16:48:21.003Z,71.30
2018-11-06T16:50:48.735Z,69.80
2018-11-06T16:53:16.746Z,62.00
2018-11-06T16:55:44.487Z,71.57
2018-11-06T16:58:12.218Z,89.07
2018-11-06T17:00:40.026Z,89.27
2018-11-06T17:03:07.762Z,81.17
2018-11-06T17:05:35.509Z,73.70
2018-11-06T17:08:03.292Z,66.40
2018-11-06T17:10:31.039Z,61.83
2018-11-06T17:12:58.782Z,60.27
2018-11-06T17:15:26.501Z,61.90
2018-11-06T17:17:54.556Z,66.77
2018-11-06T17:20:22.659Z,61.93
2018-11-06T17:22:50.472Z,59.03
2018-11-06T17:25:19.714Z,54.00
2018-11-06T17:27:47.434Z,49.20
2018-11-06T17:30:16.281Z,45.67
2018-11-06T17:32:44.337Z,39.23
2018-11-06T17:35:13.581Z,40.40
2018-11-06T17:37:41.715Z,35.90
2018-11-06T17:40:12.677Z,37.17
2018-11-06T17:42:40.810Z,37.83
2018-11-06T17:45:10.857Z,39.63
2018-11-06T17:47:39.484Z,38.07
2018-11-06T17:50:08.611Z,37.03
2018-11-06T17:52:36.358Z,35.83
2018-11-06T17:55:04.544Z,37.43
2018-11-06T17:57:32.266Z,36.23
2018-11-06T18:00:00.030Z,35.33
2018-11-06T18:02:27.777Z,34.00
2018-11-06T18:04:55.507Z,32.17
2018-11-06T18:07:23.239Z,31.87
2018-11-06T18:09:51.302Z,32.63
2018-11-06T18:12:19.040Z,34.20
2018-11-06T18:14:46.769Z,31.93
2018-11-06T18:17:14.575Z,33.77
2018-11-06T18:19:42.268Z,33.27
2018-11-06T18:22:10.003Z,32.87
2018-11-06T18:24:37.745Z,34.73
2018-11-06T18:27:05.561Z,34.63
2018-11-06T18:29:33.466Z,35.57
2018-11-06T18:32:01.227Z,39.33
2018-11-06T18:34:28.994Z,40.80
2018-11-06T18:36:56.740Z,43.87
2018-11-06T18:39:24.464Z,44.97
2018-11-06T18:41:52.186Z,44.03
2018-11-06T18:44:20.275Z,44.20
2018-11-06T18:46:48.051Z,43.53
2018-11-06T18:49:15.859Z,42.77
2018-11-06T18:51:43.602Z,42.43
2018-11-06T18:54:11.330Z,41.67
2018-11-06T18:56:39.057Z,41.73
2018-11-06T18:59:06.803Z,42.50
2018-11-06T19:01:34.538Z,46.93
2018-11-06T19:04:02.300Z,45.70
2018-11-06T19:06:31.099Z,46.63
2018-11-06T19:08:58.843Z,44.27
2018-11-06T19:11:26.601Z,43.10
2018-11-06T19:13:54.334Z,43.20
2018-11-06T19:16:22.124Z,42.57
2018-11-06T19:18:49.904Z,43.33
2018-11-06T19:21:17.620Z,46.30
2018-11-06T19:23:45.732Z,48.43
2018-11-06T19:26:13.483Z,47.77
2018-11-06T19:28:41.239Z,49.23
2018-11-06T19:31:08.991Z,46.97
2018-11-06T19:33:36.761Z,48.40
2018-11-06T19:36:04.667Z,47.23
2018-11-06T19:38:32.462Z,45.37
2018-11-06T19:41:00.211Z,45.70
2018-11-06T19:43:27.941Z,47.57
2018-11-06T19:45:55.687Z,45.53
2018-11-06T19:48:24.419Z,46.60
2018-11-06T19:50:52.154Z,48.90
2018-11-06T19:53:20.282Z,47.20
2018-11-06T19:55:47.984Z,44.80
2018-11-06T19:58:16.020Z,44.93
2018-11-06T20:00:43.888Z,46.10
2018-11-06T20:03:11.562Z,47.83
2018-11-06T20:05:39.441Z,47.10
2018-11-06T20:08:07.164Z,44.37
2018-11-06T20:10:34.931Z,42.90
2018-11-06T20:13:02.671Z,45.23
2018-11-06T20:15:30.401Z,41.87
2018-11-06T20:17:58.252Z,41.27
2018-11-06T20:20:26.511Z,39.70
2018-11-06T20:22:54.390Z,38.07
2018-11-06T20:25:22.182Z,34.70
2018-11-06T20:27:51.639Z,33.93
2018-11-06T20:30:23.572Z,32.10
2018-11-06T20:32:51.321Z,29.70
2018-11-06T20:35:19.059Z,28.80
2018-11-06T20:37:46.875Z,30.23
2018-11-06T20:40:16.403Z,27.73
2018-11-06T20:42:44.801Z,26.80
2018-11-06T20:45:13.710Z,23.13
2018-11-06T20:47:41.890Z,20.90
2018-11-06T20:50:12.482Z,21.13
2018-11-06T20:52:40.442Z,20.13
2018-11-06T20:55:08.951Z,17.83
2018-11-06T20:57:36.713Z,18.97
2018-11-06T21:00:04.948Z,20.17
2018-11-06T21:02:32.735Z,18.27
2018-11-06T21:05:00.466Z,18.03
2018-11-06T21:07:28.212Z,18.23
2018-11-06T21:09:56.071Z,18.53
2018-11-06T21:12:23.783Z,18.40
2018-11-06T21:14:51.535Z,17.37
2018-11-06T21:17:19.277Z,17.07
2018-11-06T21:19:47.080Z,15.80
2018-11-06T21:22:14.827Z,15.60
2018-11-06T21:24:42.648Z,14.53
2018-11-06T21:27:10.806Z,14.57
2018-11-06T21:29:38.388Z,14.13
2018-11-06T21:32:06.196Z,15.00
2018-11-06T21:34:34.751Z,14.20
2018-11-06T21:37:02.866Z,12.60
2018-11-06T21:39:30.760Z,13.07
2018-11-06T21:41:58.577Z,12.57
2018-11-06T21:44:26.282Z,12.93
2018-11-06T21:46:54.110Z,12.33
2018-11-06T21:49:21.830Z,12.87
2018-11-06T21:51:49.571Z,11.83
2018-11-06T21:54:18.138Z,12.07
2018-11-06T21:56:45.913Z,11.53
2018-11-06T21:59:13.625Z,12.73
2018-11-06T22:01:41.494Z,12.03
2018-11-06T22:04:09.230Z,11.07
2018-11-06T22:06:36.985Z,11.13
2018-11-06T22:09:06.843Z,12.27
2018-11-06T22:11:34.693Z,12.23
2018-11-06T22:14:02.550Z,12.77
2018-11-06T22:16:30.470Z,13.70
2018-11-06T22:18:58.217Z,13.33
2018-11-06T22:21:26.050Z,11.47
2018-11-06T22:23:53.810Z,11.67
2018-11-06T22:26:21.542Z,11.77
2018-11-06T22:28:49.250Z,9.73
2018-11-06T22:31:17.063Z,10.90
2018-11-06T22:33:44.779Z,10.10
2018-11-06T22:36:12.538Z,10.07
2018-11-06T22:38:40.299Z,9.87
2018-11-06T22:41:08.011Z,9.17
2018-11-06T22:43:35.966Z,9.87
2018-11-06T22:46:03.746Z,10.33
2018-11-06T22:48:31.478Z,11.33
2018-11-06T22:50:59.224Z,10.23
2018-11-06T22:53:26.959Z,9.63
2018-11-06T22:55:54.695Z,9.37
2018-11-06T22:58:22.474Z,8.37
2018-11-06T23:00:55.906Z,10.17
2018-11-06T23:03:23.698Z,9.43
2018-11-06T23:05:51.462Z,9.93
2018-11-06T23:08:24.578Z,9.63
2018-11-06T23:10:52.501Z,9.53
2018-11-06T23:13:20.237Z,10.37
2018-11-06T23:15:48.034Z,9.73
2018-11-06T23:18:15.786Z,9.27
2018-11-06T23:20:43.503Z,8.90
2018-11-06T23:23:11.222Z,9.27
2018-11-06T23:25:39.043Z,9.73
2018-11-06T23:28:06.786Z,9.67
2018-11-06T23:30:34.515Z,8.87
2018-11-06T23:33:02.306Z,9.20
2018-11-06T23:35:30.055Z,9.17
2018-11-06T23:37:57.786Z,9.57
2018-11-06T23:40:25.574Z,10.43
2018-11-06T23:42:53.327Z,9.20
2018-11-06T23:45:21.051Z,9.10
2018-11-06T23:47:48.794Z,9.27
2018-11-06T23:50:16.518Z,8.50
2018-11-06T23:52:44.306Z,8.27
2018-11-06T23:55:12.081Z,9.37
2018-11-06T23:57:40.031Z,9.73
